Time;durP1;ratioP1;P1;durP2;ratioP2;P2;SDS_P1;SDS_P2;PMS_P1;PMS_P2;Temp;Humidity;BMP_temperature;BMP_pressure;BME280_temperature;BME280_humidity;BME280_pressure;Samples;Min_cycle;Max_cycle;Signal;HPM_P1;HPM_P2
2022/06/30 00:01:48;;;;;;;1.10;1.10;;;;;;;20.56;92.25;95179.53;4361718;32;20211;-62
2022/06/30 00:04:18;;;;;;;1.50;1.50;;;;;;;20.52;92.31;95176.00;4351668;32;20301;-53
2022/06/30 00:06:44;;;;;;;1.20;1.20;;;;;;;20.43;92.18;95170.03;4352842;32;20208;-57
2022/06/30 00:09:14;;;;;;;1.30;1.30;;;;;;;20.47;92.64;95165.50;4344039;32;20452;-57
2022/06/30 00:11:41;;;;;;;1.60;1.60;;;;;;;20.28;92.30;95160.13;4320455;32;20211;-56
2022/06/30 00:14:07;;;;;;;1.40;1.30;;;;;;;20.49;92.51;95157.84;4332865;32;24023;-56
2022/06/30 00:16:36;;;;;;;1.30;1.30;;;;;;;20.58;91.97;95161.03;4334176;32;20212;-55
2022/06/30 00:19:02;;;;;;;1.00;1.00;;;;;;;20.49;92.14;95154.34;4339130;32;20200;-52
2022/06/30 00:21:28;;;;;;;1.70;1.67;;;;;;;20.42;92.37;95157.72;4350698;32;20271;-54
2022/06/30 00:23:55;;;;;;;1.23;1.23;;;;;;;20.33;92.95;95148.28;4349548;32;20184;-56
2022/06/30 00:26:21;;;;;;;1.90;1.80;;;;;;;20.38;92.30;95140.69;4360189;32;20189;-55
2022/06/30 00:28:50;;;;;;;1.40;1.30;;;;;;;20.43;92.45;95143.09;4354983;32;20192;-58
2022/06/30 00:31:18;;;;;;;1.67;1.57;;;;;;;20.44;92.06;95147.34;4333829;32;20280;-54
2022/06/30 00:33:49;;;;;;;1.43;1.43;;;;;;;20.43;91.54;95151.19;4321084;32;20315;-54
2022/06/30 00:36:18;;;;;;;1.23;1.13;;;;;;;20.50;91.90;95155.91;4337798;32;20253;-55
2022/06/30 00:38:44;;;;;;;1.10;1.07;;;;;;;20.38;92.08;95156.09;4355815;32;20262;-55
2022/06/30 00:41:11;;;;;;;4.93;1.00;;;;;;;20.39;92.16;95157.66;4346361;32;20385;-55
2022/06/30 00:43:48;;;;;;;1.27;1.27;;;;;;;20.15;92.33;95151.47;4341367;32;22547;-56
2022/06/30 00:46:21;;;;;;;2.27;2.17;;;;;;;20.17;93.26;95156.47;4302592;32;20193;-56
2022/06/30 00:48:47;;;;;;;1.10;1.10;;;;;;;20.18;92.53;95149.94;4324543;32;20243;-63
2022/06/30 00:51:13;;;;;;;1.57;1.57;;;;;;;20.23;92.31;95144.25;4349466;32;20209;-57
2022/06/30 00:53:40;;;;;;;2.30;1.30;;;;;;;20.28;92.60;95141.28;4352359;32;20222;-55
2022/06/30 00:56:10;;;;;;;1.20;1.20;;;;;;;20.27;91.96;95138.94;4368999;32;20301;-56
2022/06/30 00:58:41;;;;;;;1.17;1.17;;;;;;;20.20;92.84;95137.69;4372454;32;20208;-55
2022/06/30 01:01:10;;;;;;;3.67;2.30;;;;;;;20.27;92.82;95128.94;4336845;32;20289;-54
2022/06/30 01:03:37;;;;;;;1.43;1.43;;;;;;;20.31;92.58;95129.78;4348510;32;20247;-55
2022/06/30 01:06:12;;;;;;;1.23;1.23;;;;;;;20.38;92.08;95124.53;4347895;32;20216;-54
2022/06/30 01:08:49;;;;;;;1.10;1.07;;;;;;;20.11;92.33;95128.28;4367411;32;20277;-52
2022/06/30 01:14:02;;;;;;;0.97;0.90;;;;;;;20.22;92.71;95135.41;4349090;32;20255;-57
2022/06/30 01:16:27;;;;;;;0.97;0.97;;;;;;;20.21;92.52;95139.22;4330454;32;20205;-56
2022/06/30 01:18:53;;;;;;;2.63;1.60;;;;;;;20.17;91.97;95132.22;4352730;32;20188;-53
2022/06/30 01:21:22;;;;;;;1.03;0.93;;;;;;;20.24;92.51;95135.03;4339548;32;20261;-54
2022/06/30 01:23:48;;;;;;;1.43;1.43;;;;;;;20.14;92.17;95130.28;4341418;32;20334;-60
2022/06/30 01:26:17;;;;;;;1.43;1.33;;;;;;;20.18;92.68;95131.09;4356023;32;20193;-54
2022/06/30 01:28:43;;;;;;;0.60;0.60;;;;;;;20.24;92.60;95130.44;4355376;32;20189;-53
2022/06/30 01:31:09;;;;;;;1.57;1.47;;;;;;;20.14;92.65;95124.88;4367745;32;20215;-56
2022/06/30 01:33:34;;;;;;;1.50;0.97;;;;;;;19.85;93.23;95129.75;4334126;32;20198;-55
2022/06/30 01:36:00;;;;;;;1.00;1.00;;;;;;;20.07;93.12;95132.81;4336582;32;20221;-53
2022/06/30 01:38:26;;;;;;;1.37;1.37;;;;;;;20.13;91.96;95129.50;4337554;32;20199;-55
2022/06/30 01:40:52;;;;;;;1.47;1.47;;;;;;;20.10;92.57;95129.41;4344140;32;20198;-53
2022/06/30 01:43:17;;;;;;;1.90;1.80;;;;;;;20.17;92.55;95126.84;4335574;32;20228;-59
2022/06/30 01:45:44;;;;;;;0.80;0.80;;;;;;;20.12;92.20;95121.75;4343119;32;20205;-56
2022/06/30 01:48:09;;;;;;;2.30;1.67;;;;;;;20.12;91.93;95124.47;4341660;32;20196;-55
2022/06/30 01:50:36;;;;;;;1.37;1.37;;;;;;;20.04;91.96;95128.94;4368948;32;20211;-57
2022/06/30 01:53:02;;;;;;;1.67;1.67;;;;;;;20.12;91.88;95121.75;4329546;32;20279;-54
2022/06/30 01:55:31;;;;;;;6.63;1.40;;;;;;;19.94;91.79;95131.44;4326744;32;20200;-54
2022/06/30 01:57:57;;;;;;;1.37;1.37;;;;;;;19.88;92.99;95128.25;4377791;32;20192;-55
2022/06/30 02:00:26;;;;;;;2.13;1.93;;;;;;;19.83;92.35;95129.31;4361330;32;20240;-53
2022/06/30 02:03:04;;;;;;;1.13;1.13;;;;;;;19.83;93.01;95136.63;4359925;32;20201;-53
2022/06/30 02:05:32;;;;;;;3.10;1.37;;;;;;;19.89;92.61;95133.28;4363891;32;20240;-55
2022/06/30 02:07:59;;;;;;;1.27;1.27;;;;;;;19.93;92.60;95141.44;4368126;32;20184;-55
2022/06/30 02:10:24;;;;;;;2.30;2.20;;;;;;;19.80;93.18;95151.56;4339144;32;20189;-55
2022/06/30 02:12:51;;;;;;;1.50;1.40;;;;;;;19.81;92.26;95150.44;4338541;32;20225;-56
2022/06/30 02:15:32;;;;;;;1.47;1.47;;;;;;;19.73;93.17;95151.47;4346263;32;20189;-55
2022/06/30 02:18:00;;;;;;;1.23;1.23;;;;;;;19.80;92.57;95148.88;4343013;32;20197;-57
2022/06/30 02:20:28;;;;;;;1.07;1.07;;;;;;;19.73;92.79;95143.38;4339080;32;20208;-54
2022/06/30 02:23:05;;;;;;;2.00;1.90;;;;;;;19.77;93.18;95152.28;4329117;32;20201;-56
2022/06/30 02:25:34;;;;;;;1.37;1.33;;;;;;;19.74;92.43;95152.25;4359700;32;20255;-54
2022/06/30 02:28:05;;;;;;;0.70;0.70;;;;;;;19.79;92.29;95143.84;4319528;32;20196;-56
2022/06/30 02:30:31;;;;;;;1.43;1.43;;;;;;;19.68;92.50;95146.34;4339359;32;20229;-53
2022/06/30 02:32:57;;;;;;;1.40;1.30;;;;;;;19.85;92.38;95150.50;4331964;32;20189;-54
2022/06/30 02:35:24;;;;;;;0.90;0.90;;;;;;;19.73;92.02;95159.53;4311357;32;20189;-57
2022/06/30 02:37:50;;;;;;;0.90;0.90;;;;;;;19.63;92.94;95162.78;4338778;32;20200;-53
2022/06/30 02:40:17;;;;;;;1.40;1.40;;;;;;;19.73;92.77;95153.37;4351773;32;20221;-55
2022/06/30 02:42:43;;;;;;;0.90;0.90;;;;;;;19.74;92.87;95154.94;4349097;32;20304;-52
2022/06/30 02:45:13;;;;;;;1.30;1.30;;;;;;;19.67;91.56;95150.19;4336400;32;20295;-54
2022/06/30 02:47:45;;;;;;;1.20;1.20;;;;;;;19.66;93.13;95148.63;4318102;32;20205;-53
2022/06/30 02:50:13;;;;;;;1.63;1.47;;;;;;;19.75;92.67;95161.84;4353032;32;20211;-55
2022/06/30 02:52:40;;;;;;;1.07;1.07;;;;;;;19.75;92.70;95157.25;4335451;32;20298;-56
2022/06/30 02:55:08;;;;;;;1.23;1.23;;;;;;;19.76;92.45;95156.09;4347069;32;20223;-55
2022/06/30 02:57:35;;;;;;;1.23;1.23;;;;;;;19.56;92.62;95160.72;4336352;32;20251;-56
2022/06/30 03:00:07;;;;;;;1.30;1.30;;;;;;;19.58;92.87;95162.28;4348857;32;20211;-54
2022/06/30 03:02:33;;;;;;;1.10;1.10;;;;;;;19.55;93.04;95155.69;4318592;32;20198;-54
2022/06/30 03:04:58;;;;;;;2.23;1.93;;;;;;;19.67;92.45;95165.56;4322619;32;20228;-57
2022/06/30 03:07:25;;;;;;;2.00;1.90;;;;;;;19.77;92.84;95160.34;4345217;32;20220;-55
2022/06/30 03:09:52;;;;;;;0.60;0.60;;;;;;;19.73;92.04;95164.91;4323468;32;20208;-56
2022/06/30 03:12:21;;;;;;;1.37;1.37;;;;;;;19.71;92.36;95161.81;4331000;32;20245;-57
2022/06/30 03:14:47;;;;;;;1.33;1.33;;;;;;;19.67;92.45;95168.25;4318731;32;20208;-56
2022/06/30 03:17:34;;;;;;;1.23;1.23;;;;;;;19.71;92.47;95156.41;4344801;32;20240;-57
2022/06/30 03:20:02;;;;;;;0.70;0.70;;;;;;;19.70;92.78;95160.25;4352846;32;20296;-52
2022/06/30 03:22:29;;;;;;;1.23;1.23;;;;;;;19.78;92.64;95164.59;4354327;32;20211;-56
2022/06/30 03:24:55;;;;;;;1.37;1.37;;;;;;;19.73;92.41;95158.75;4353931;32;20256;-54
2022/06/30 03:27:20;;;;;;;1.73;1.63;;;;;;;19.48;91.94;95169.00;4340646;32;20209;-57
2022/06/30 03:29:47;;;;;;;3.37;1.50;;;;;;;19.63;92.76;95159.31;4347836;32;20247;-56
2022/06/30 03:32:15;;;;;;;1.23;1.23;;;;;;;19.47;92.92;95162.03;4336657;32;20193;-56
2022/06/30 03:34:41;;;;;;;1.97;1.80;;;;;;;19.46;93.43;95161.28;4315911;32;20213;-56
2022/06/30 03:37:08;;;;;;;1.43;1.43;;;;;;;19.62;92.29;95163.91;4332301;32;20193;-55
2022/06/30 03:39:36;;;;;;;1.87;1.87;;;;;;;19.62;92.83;95169.28;4336627;32;20193;-55
2022/06/30 03:42:07;;;;;;;3.70;1.10;;;;;;;19.68;93.00;95167.88;4343228;32;20208;-56
2022/06/30 03:44:35;;;;;;;1.57;1.10;;;;;;;19.64;91.98;95169.72;4371689;32;20189;-54
2022/06/30 03:47:02;;;;;;;2.17;1.63;;;;;;;19.60;92.38;95176.94;4362736;32;20232;-54
2022/06/30 03:49:31;;;;;;;1.20;1.20;;;;;;;19.66;92.10;95172.84;4371821;32;20186;-56
2022/06/30 03:52:00;;;;;;;1.63;1.53;;;;;;;19.66;92.39;95174.75;4329827;32;20209;-54
2022/06/30 03:54:26;;;;;;;1.70;1.67;;;;;;;19.37;92.19;95173.34;4345584;32;20189;-55
2022/06/30 03:56:51;;;;;;;1.47;1.47;;;;;;;19.51;93.70;95176.37;4349159;32;20257;-57
2022/06/30 03:59:18;;;;;;;3.33;1.70;;;;;;;19.56;93.00;95179.56;4355312;32;20205;-56
2022/06/30 04:01:46;;;;;;;1.30;1.30;;;;;;;19.56;92.39;95176.87;4371819;32;20189;-56
2022/06/30 04:04:13;;;;;;;1.50;1.50;;;;;;;19.54;92.85;95181.03;4365092;32;20252;-54
2022/06/30 04:06:38;;;;;;;1.87;1.70;;;;;;;19.51;93.25;95184.47;4334150;32;20271;-55
2022/06/30 04:09:04;;;;;;;1.33;1.33;;;;;;;19.52;91.62;95183.34;4349301;32;20199;-53
2022/06/30 04:11:29;;;;;;;1.10;1.10;;;;;;;19.48;92.62;95187.81;4306640;32;20264;-54
2022/06/30 04:13:56;;;;;;;1.07;1.07;;;;;;;19.48;93.16;95185.13;4357203;32;20290;-55
2022/06/30 04:16:21;;;;;;;1.30;1.20;;;;;;;19.45;92.95;95177.75;4357591;32;20208;-60
2022/06/30 04:18:48;;;;;;;1.47;1.10;;;;;;;19.56;93.30;95176.87;4348875;32;20234;-55
2022/06/30 04:21:16;;;;;;;2.30;1.37;;;;;;;19.60;92.41;95170.78;4355901;32;20207;-56
2022/06/30 04:23:43;;;;;;;1.07;1.07;;;;;;;19.49;92.42;95173.25;4327043;32;20296;-55
2022/06/30 04:26:14;;;;;;;1.40;1.40;;;;;;;19.62;92.35;95179.28;4362814;32;20344;-55
2022/06/30 04:28:40;;;;;;;1.70;1.70;;;;;;;19.63;92.07;95180.84;4358870;32;20248;-57
2022/06/30 04:33:53;;;;;;;1.30;1.20;;;;;;;19.56;91.99;95179.56;4341292;32;20227;-56
2022/06/30 04:36:19;;;;;;;1.23;1.23;;;;;;;19.62;92.35;95177.37;4336559;32;20185;-54
2022/06/30 04:38:45;;;;;;;1.50;1.43;;;;;;;19.67;92.36;95181.69;4347950;32;20231;-56
2022/06/30 04:41:24;;;;;;;1.37;1.37;;;;;;;19.70;92.05;95181.78;4320051;32;20314;-57
2022/06/30 04:43:56;;;;;;;1.57;1.57;;;;;;;19.65;92.19;95179.34;4341446;32;20244;-53
2022/06/30 04:46:23;;;;;;;1.33;1.33;;;;;;;19.82;91.66;95170.84;4320369;32;20196;-56
2022/06/30 04:48:55;;;;;;;4.80;1.53;;;;;;;19.87;91.39;95180.56;4352488;32;20238;-58
2022/06/30 04:51:21;;;;;;;1.20;1.20;;;;;;;19.72;91.71;95176.03;4359449;32;20193;-55
2022/06/30 04:53:50;;;;;;;3.77;1.33;;;;;;;19.79;91.00;95174.25;4332538;32;20197;-53
2022/06/30 04:56:17;;;;;;;1.20;1.20;;;;;;;19.79;91.03;95171.56;4321282;32;20291;-55
2022/06/30 04:58:47;;;;;;;1.27;1.27;;;;;;;19.80;91.01;95186.56;4336311;32;20193;-56
2022/06/30 05:01:14;;;;;;;1.10;1.10;;;;;;;19.99;91.18;95174.22;4344042;32;20285;-56
2022/06/30 05:03:40;;;;;;;0.73;0.73;;;;;;;19.91;91.03;95176.03;4332610;32;21165;-55
2022/06/30 05:06:09;;;;;;;0.70;0.70;;;;;;;19.88;90.86;95176.72;4344334;32;20188;-55
2022/06/30 05:08:35;;;;;;;0.83;0.83;;;;;;;19.93;90.78;95183.75;4366805;32;20196;-56
2022/06/30 05:11:01;;;;;;;1.50;1.40;;;;;;;19.89;90.15;95179.06;4338266;32;20259;-57
2022/06/30 05:13:27;;;;;;;1.40;1.30;;;;;;;19.90;90.75;95177.94;4338084;32;20197;-55
2022/06/30 05:15:54;;;;;;;1.60;1.50;;;;;;;19.89;90.80;95171.00;4336536;32;20200;-53
2022/06/30 05:18:21;;;;;;;0.83;0.83;;;;;;;19.92;90.59;95166.81;4335330;32;20211;-54
2022/06/30 05:20:48;;;;;;;0.80;0.80;;;;;;;19.96;90.34;95162.25;4323646;32;20203;-56
2022/06/30 05:23:14;;;;;;;2.20;1.43;;;;;;;20.13;90.30;95166.44;4332355;32;20212;-55
2022/06/30 05:28:27;;;;;;;4.57;1.10;;;;;;;20.20;89.53;95155.75;4308121;32;20293;-55
2022/06/30 05:30:57;;;;;;;1.30;1.20;;;;;;;20.21;88.96;95158.09;4356807;32;20273;-53
2022/06/30 05:33:24;;;;;;;1.10;1.07;;;;;;;20.18;89.39;95166.09;4339400;32;20197;-56
2022/06/30 05:35:52;;;;;;;1.93;1.43;;;;;;;20.15;86.87;95161.47;4322187;32;20197;-53
2022/06/30 05:38:19;;;;;;;1.10;1.10;;;;;;;20.15;89.00;95164.94;4359740;32;20216;-53
2022/06/30 05:40:47;;;;;;;0.87;0.87;;;;;;;20.20;89.42;95166.53;4343925;32;20193;-54
2022/06/30 05:43:20;;;;;;;0.93;0.93;;;;;;;20.14;88.77;95162.59;4365484;32;20255;-54
2022/06/30 05:45:50;;;;;;;1.17;1.17;;;;;;;20.16;89.32;95165.72;4335279;32;20229;-54
2022/06/30 05:48:18;;;;;;;1.60;1.50;;;;;;;20.20;89.08;95163.84;4288177;32;20190;-54
2022/06/30 05:50:47;;;;;;;1.27;1.23;;;;;;;20.35;89.73;95152.19;4349272;32;20192;-55
2022/06/30 05:53:14;;;;;;;0.70;0.70;;;;;;;20.43;90.06;95153.87;4327199;32;20249;-52
2022/06/30 05:55:39;;;;;;;1.60;1.43;;;;;;;20.42;87.27;95151.53;4358662;32;20193;-53
2022/06/30 05:58:05;;;;;;;4.93;2.20;;;;;;;20.36;87.54;95159.13;4356386;32;20214;-56
2022/06/30 06:00:33;;;;;;;1.83;1.60;;;;;;;20.50;88.69;95162.09;4357302;32;20288;-54
2022/06/30 06:03:01;;;;;;;1.90;1.80;;;;;;;20.46;86.96;95158.56;4369396;32;20185;-53
2022/06/30 06:05:34;;;;;;;1.97;1.87;;;;;;;20.63;87.96;95165.38;4345136;32;20256;-55
2022/06/30 06:08:08;;;;;;;2.67;1.53;;;;;;;20.72;86.59;95165.12;4358612;32;20272;-55
2022/06/30 06:10:35;;;;;;;1.27;1.17;;;;;;;20.69;86.20;95160.44;4308394;32;20205;-55
2022/06/30 06:13:03;;;;;;;0.93;0.93;;;;;;;20.91;87.26;95162.34;4311149;32;20231;-56
2022/06/30 06:15:29;;;;;;;1.37;1.03;;;;;;;20.86;85.70;95157.25;4346291;32;20192;-55
2022/06/30 06:17:55;;;;;;;1.00;1.00;;;;;;;20.95;85.64;95165.88;4353698;32;20185;-55
2022/06/30 06:20:22;;;;;;;2.20;1.87;;;;;;;21.07;86.49;95168.34;4360496;32;20173;-56
2022/06/30 06:22:47;;;;;;;1.20;1.20;;;;;;;21.16;85.96;95168.09;4347356;32;20188;-53
2022/06/30 06:25:14;;;;;;;1.50;1.50;;;;;;;21.15;85.68;95167.31;4352024;32;20196;-56
2022/06/30 06:27:42;;;;;;;1.60;1.50;;;;;;;21.30;85.49;95172.94;4325231;32;20189;-52
2022/06/30 06:30:11;;;;;;;1.20;1.20;;;;;;;21.32;86.04;95171.44;4326567;32;20243;-54
2022/06/30 06:32:39;;;;;;;1.20;1.20;;;;;;;21.42;85.61;95172.69;4351738;32;20201;-55
2022/06/30 06:35:06;;;;;;;0.83;0.83;;;;;;;21.40;84.34;95177.72;4321333;32;20266;-56
2022/06/30 06:37:33;;;;;;;2.97;1.57;;;;;;;21.54;84.78;95175.19;4312105;32;20259;-54
2022/06/30 06:40:01;;;;;;;1.70;1.60;;;;;;;21.60;84.99;95171.81;4343383;32;20201;-55
2022/06/30 06:42:35;;;;;;;1.30;1.30;;;;;;;21.69;84.54;95178.81;4348513;32;20239;-55
2022/06/30 06:45:02;;;;;;;0.60;0.60;;;;;;;21.82;83.94;95172.81;4331289;32;20251;-53
2022/06/30 06:47:28;;;;;;;6.93;1.63;;;;;;;21.93;84.19;95160.22;4327464;32;20213;-55
2022/06/30 06:49:55;;;;;;;1.20;1.20;;;;;;;22.01;81.95;95158.41;4336199;32;20236;-55
2022/06/30 06:52:20;;;;;;;1.00;1.00;;;;;;;22.04;80.00;95156.84;4324027;32;20243;-53
2022/06/30 06:54:47;;;;;;;1.37;1.37;;;;;;;22.18;78.95;95159.72;4307947;32;20196;-56
2022/06/30 06:57:12;;;;;;;1.03;1.03;;;;;;;22.22;78.73;95158.63;4352778;32;20303;-55
2022/06/30 06:59:38;;;;;;;1.60;1.03;;;;;;;22.37;79.05;95153.34;4305839;32;20197;-54
2022/06/30 07:02:09;;;;;;;1.47;1.37;;;;;;;22.45;79.26;95154.94;4335472;32;20196;-53
2022/06/30 07:04:40;;;;;;;0.90;0.90;;;;;;;22.50;78.46;95158.06;4317997;32;20214;-54
2022/06/30 07:07:06;;;;;;;0.57;0.57;;;;;;;22.79;78.94;95148.31;4333167;32;20221;-54
2022/06/30 07:09:34;;;;;;;1.60;1.50;;;;;;;22.78;78.26;95143.25;4329818;32;20249;-55
2022/06/30 07:12:01;;;;;;;0.73;0.73;;;;;;;22.94;76.31;95152.66;4291236;32;20206;-54
2022/06/30 07:14:28;;;;;;;0.83;0.83;;;;;;;22.99;78.67;95139.94;4341935;32;20192;-53
2022/06/30 07:16:54;;;;;;;0.87;0.87;;;;;;;23.12;76.09;95150.06;4342783;32;20197;-54
2022/06/30 07:19:21;;;;;;;1.07;1.07;;;;;;;23.19;76.31;95144.69;4272280;33;20198;-54
2022/06/30 07:22:08;;;;;;;3.00;1.70;;;;;;;23.48;75.56;95147.56;4326437;32;20261;-54
2022/06/30 07:24:36;;;;;;;0.83;0.83;;;;;;;23.58;74.43;95138.72;4342366;32;20193;-55
2022/06/30 07:27:06;;;;;;;0.97;0.97;;;;;;;23.65;70.80;95138.75;4336719;32;20220;-51
2022/06/30 07:29:32;;;;;;;1.10;1.10;;;;;;;23.64;73.95;95135.28;4351431;32;20280;-52
2022/06/30 07:31:58;;;;;;;2.33;2.20;;;;;;;23.46;70.73;95141.75;4359683;32;20189;-53
2022/06/30 07:34:23;;;;;;;1.00;1.00;;;;;;;23.44;72.96;95130.50;4338213;32;20192;-52
2022/06/30 07:36:48;;;;;;;0.80;0.80;;;;;;;23.41;72.18;95134.75;4330836;32;20208;-62
2022/06/30 07:39:14;;;;;;;2.27;0.77;;;;;;;23.39;72.26;95130.87;4298792;32;20213;-54
2022/06/30 07:41:40;;;;;;;0.83;0.83;;;;;;;23.42;73.13;95130.13;4321446;32;20262;-51
2022/06/30 07:44:08;;;;;;;0.60;0.60;;;;;;;23.44;72.03;95134.00;4322787;32;20264;-54
2022/06/30 07:46:35;;;;;;;0.97;0.97;;;;;;;23.54;70.87;95137.94;4283006;32;20182;-55
2022/06/30 07:49:02;;;;;;;1.73;1.63;;;;;;;23.52;70.91;95134.81;4285220;32;20212;-56
2022/06/30 07:51:28;;;;;;;1.30;1.30;;;;;;;23.59;71.23;95130.22;4303048;32;20223;-51
2022/06/30 07:53:55;;;;;;;0.83;0.83;;;;;;;23.53;71.35;95130.94;4248653;32;20198;-51
2022/06/30 07:56:23;;;;;;;5.87;1.00;;;;;;;23.63;71.01;95131.00;4308702;32;20190;-57
2022/06/30 07:58:50;;;;;;;0.90;0.90;;;;;;;23.62;71.40;95126.75;4325624;32;20188;-56
2022/06/30 08:01:19;;;;;;;1.30;1.23;;;;;;;23.71;71.93;95125.59;4351870;32;20248;-55
2022/06/30 08:03:49;;;;;;;1.63;1.47;;;;;;;23.76;73.21;95119.81;4318417;32;20185;-56
2022/06/30 08:06:16;;;;;;;0.90;0.90;;;;;;;23.86;69.49;95122.56;4304793;32;20197;-51
2022/06/30 08:08:45;;;;;;;4.93;1.43;;;;;;;23.88;70.06;95122.97;4339386;32;20319;-57
2022/06/30 08:11:12;;;;;;;0.67;0.67;;;;;;;23.92;69.40;95121.03;4324197;32;20201;-49
2022/06/30 08:13:40;;;;;;;1.03;1.03;;;;;;;23.90;70.42;95126.03;4316731;32;20188;-55
2022/06/30 08:16:16;;;;;;;1.73;1.63;;;;;;;23.93;72.20;95125.28;4324732;32;20201;-53
2022/06/30 08:18:42;;;;;;;1.07;1.07;;;;;;;23.98;72.54;95129.56;4327078;32;20331;-56
2022/06/30 08:21:12;;;;;;;1.00;1.00;;;;;;;23.97;72.83;95130.72;4295626;32;20251;-54
2022/06/30 08:23:40;;;;;;;1.10;1.00;;;;;;;23.92;72.62;95126.44;4335237;32;20258;-55
2022/06/30 08:26:14;;;;;;;0.97;0.97;;;;;;;24.04;70.78;95121.84;4361493;32;20201;-55
2022/06/30 08:28:40;;;;;;;0.87;0.87;;;;;;;23.98;70.90;95119.50;4328994;32;20276;-54
2022/06/30 08:31:16;;;;;;;1.40;1.30;;;;;;;24.02;71.38;95116.78;4335888;32;20201;-52
2022/06/30 08:33:41;;;;;;;1.17;1.17;;;;;;;23.98;72.07;95111.34;4352354;32;20322;-53
2022/06/30 08:36:11;;;;;;;0.80;0.80;;;;;;;24.01;72.30;95106.34;4335622;32;20198;-53
2022/06/30 08:38:37;;;;;;;1.00;1.00;;;;;;;24.02;70.91;95111.38;4309597;32;20193;-54
2022/06/30 08:43:58;;;;;;;0.60;0.60;;;;;;;24.07;70.91;95099.38;4342019;32;20203;-54
2022/06/30 08:46:28;;;;;;;1.60;1.53;;;;;;;24.23;68.55;95097.06;4297503;32;20193;-53
2022/06/30 08:48:55;;;;;;;5.93;1.30;;;;;;;24.40;67.36;95096.34;4329856;32;20220;-56
2022/06/30 08:51:22;;;;;;;0.60;0.60;;;;;;;24.45;66.66;95101.38;4328726;32;20197;-55
2022/06/30 08:54:03;;;;;;;4.40;1.03;;;;;;;24.35;67.08;95094.00;4341588;32;20193;-53
2022/06/30 08:56:34;;;;;;;1.37;1.30;;;;;;;24.45;66.12;95098.66;4329959;32;20214;-53
2022/06/30 08:59:04;;;;;;;1.30;1.30;;;;;;;24.46;66.43;95094.78;4293829;32;20242;-53
2022/06/30 09:01:32;;;;;;;0.87;0.87;;;;;;;24.47;65.96;95085.50;4348155;32;20230;-56
2022/06/30 09:04:00;;;;;;;0.40;0.40;;;;;;;24.41;67.96;95081.59;4328043;32;20211;-55
2022/06/30 09:06:28;;;;;;;1.77;1.27;;;;;;;24.56;66.52;95082.38;4340346;32;20203;-53
2022/06/30 09:08:56;;;;;;;0.80;0.80;;;;;;;24.59;66.24;95087.81;4312546;32;20182;-55
2022/06/30 09:11:50;;;;;;;1.17;1.17;;;;;;;24.72;65.15;95079.28;4317840;32;20244;-54
2022/06/30 09:14:35;;;;;;;0.70;0.70;;;;;;;24.69;65.32;95080.06;4315402;32;20197;-57
2022/06/30 09:17:06;;;;;;;0.50;0.50;;;;;;;24.73;65.24;95078.13;4339472;32;20247;-53
2022/06/30 09:19:35;;;;;;;1.87;1.77;;;;;;;24.64;65.57;95082.00;4333117;32;20237;-53
2022/06/30 09:22:10;;;;;;;2.70;2.50;;;;;;;24.64;65.21;95079.28;4330083;32;20244;-54
2022/06/30 09:24:37;;;;;;;4.33;2.07;;;;;;;24.81;64.71;95077.69;4301819;32;20189;-56
2022/06/30 09:27:24;;;;;;;1.83;1.83;;;;;;;24.88;64.68;95090.50;4343349;32;20200;-54
2022/06/30 09:30:07;;;;;;;1.83;1.73;;;;;;;24.85;63.92;95083.13;4337350;32;20188;-53
2022/06/30 09:32:57;;;;;;;2.17;2.07;;;;;;;25.01;63.50;95080.78;4330239;32;20207;-56
2022/06/30 09:35:28;;;;;;;3.77;2.93;;;;;;;25.03;64.19;95078.44;4330414;32;20224;-56
2022/06/30 09:38:07;;;;;;;2.27;2.10;;;;;;;25.24;63.29;95083.06;4323163;32;20193;-57
2022/06/30 09:41:00;;;;;;;1.37;1.30;;;;;;;25.25;63.94;95074.50;4322800;32;20256;-56
2022/06/30 09:43:39;;;;;;;2.27;2.17;;;;;;;25.28;62.84;95073.72;4328010;32;20214;-55
2022/06/30 09:46:15;;;;;;;6.30;2.00;;;;;;;25.28;62.80;95073.72;4307604;32;20197;-56
2022/06/30 09:48:46;;;;;;;1.90;1.67;;;;;;;25.32;63.78;95066.34;4314876;32;20192;-57
2022/06/30 09:51:15;;;;;;;1.00;1.00;;;;;;;25.41;62.09;95076.78;4352735;32;20252;-56
2022/06/30 09:53:41;;;;;;;1.33;0.97;;;;;;;25.65;61.02;95080.56;4352640;32;20192;-55
2022/06/30 09:56:14;;;;;;;0.70;0.70;;;;;;;25.67;61.42;95080.97;4341137;32;20196;-52
2022/06/30 09:58:42;;;;;;;1.90;1.30;;;;;;;25.66;61.97;95079.41;4337912;32;20355;-56
2022/06/30 10:01:18;;;;;;;2.90;2.27;;;;;;;25.72;61.79;95069.69;4320376;32;20241;-55
2022/06/30 10:03:49;;;;;;;10.03;1.97;;;;;;;25.85;60.42;95073.47;4341852;32;20251;-55
2022/06/30 10:06:18;;;;;;;1.17;1.07;;;;;;;25.82;59.88;95077.00;4331354;32;20215;-54
2022/06/30 10:08:45;;;;;;;0.93;0.93;;;;;;;25.80;59.33;95073.88;4358183;32;20205;-56
2022/06/30 10:11:15;;;;;;;0.83;0.83;;;;;;;25.83;59.01;95072.31;4321136;32;20252;-55
2022/06/30 10:14:04;;;;;;;0.70;0.70;;;;;;;25.93;58.25;95068.78;4332173;32;20275;-56
2022/06/30 10:16:31;;;;;;;1.67;1.50;;;;;;;25.85;58.22;95065.31;4323264;32;20212;-55
2022/06/30 10:19:01;;;;;;;1.63;1.53;;;;;;;25.84;58.83;95058.34;4335498;32;20189;-54
2022/06/30 10:21:28;;;;;;;1.80;1.70;;;;;;;25.95;58.87;95061.78;4347047;32;20181;-55
2022/06/30 10:23:53;;;;;;;0.47;0.47;;;;;;;25.84;60.88;95063.78;4358261;32;20238;-55
2022/06/30 10:29:04;;;;;;;2.17;1.63;;;;;;;26.00;58.60;95061.34;4348885;32;20222;-56
2022/06/30 10:31:52;;;;;;;0.57;0.57;;;;;;;25.97;57.64;95048.56;4339602;32;20188;-55
2022/06/30 10:34:35;;;;;;;0.80;0.80;;;;;;;26.06;57.72;95047.31;4312537;32;20194;-55
2022/06/30 10:37:21;;;;;;;0.90;0.90;;;;;;;26.02;58.82;95052.78;4318093;32;20266;-56
2022/06/30 10:39:59;;;;;;;1.13;1.00;;;;;;;25.99;58.00;95040.75;4297933;32;20181;-56
2022/06/30 10:43:13;;;;;;;1.50;1.03;;;;;;;26.11;58.48;95052.34;4331448;32;20208;-57
2022/06/30 10:46:16;;;;;;;3.33;3.03;;;;;;;26.15;57.85;95036.78;4294120;32;20240;-55
2022/06/30 10:48:53;;;;;;;1.63;1.53;;;;;;;26.20;58.84;95036.34;4306180;32;20204;-55
2022/06/30 10:51:24;;;;;;;1.77;1.30;;;;;;;26.17;59.96;95039.87;4314543;32;20259;-59
2022/06/30 10:53:56;;;;;;;0.67;0.67;;;;;;;26.31;56.58;95035.12;4332034;32;20311;-55
2022/06/30 10:56:26;;;;;;;2.67;1.10;;;;;;;26.32;56.83;95035.88;4334775;32;20243;-55
2022/06/30 10:59:31;;;;;;;0.77;0.77;;;;;;;26.37;56.58;95031.97;4311048;32;20228;-55
2022/06/30 11:02:22;;;;;;;1.33;1.23;;;;;;;26.34;56.19;95028.09;4253900;33;20285;-56
2022/06/30 11:04:51;;;;;;;0.67;0.67;;;;;;;26.46;56.01;95024.87;4257717;33;20246;-51
2022/06/30 11:07:25;;;;;;;0.93;0.93;;;;;;;26.48;55.08;95027.97;4285493;33;20209;-54
2022/06/30 11:10:03;;;;;;;1.80;1.07;;;;;;;26.54;54.07;95023.66;4265419;33;20190;-53
2022/06/30 11:12:32;;;;;;;1.37;1.30;;;;;;;26.66;53.85;95022.34;4246880;33;20187;-55
2022/06/30 11:15:00;;;;;;;0.73;0.73;;;;;;;26.74;53.46;95023.06;4285239;33;20213;-55
2022/06/30 11:17:29;;;;;;;0.63;0.63;;;;;;;26.81;52.83;95018.31;4258916;33;20272;-55
2022/06/30 11:20:14;;;;;;;1.00;1.00;;;;;;;26.69;52.80;95016.87;4279623;33;20202;-56
2022/06/30 11:22:43;;;;;;;1.43;1.40;;;;;;;26.73;52.31;95021.53;4215327;33;20204;-55
2022/06/30 11:27:17;;;;;;;0.97;0.97;;;;;;;26.62;51.47;95008.78;4267437;33;20274;-52
2022/06/30 11:28:05;;;;;;;3.70;1.03;;;;;;;26.68;51.83;95015.31;4253000;33;20344;-54
2022/06/30 11:30:32;;;;;;;1.27;1.20;;;;;;;26.74;51.98;95010.22;4241480;33;20222;-55
2022/06/30 11:32:59;;;;;;;1.30;1.27;;;;;;;26.72;52.12;95014.53;4308331;32;20227;-56
2022/06/30 11:35:28;;;;;;;1.80;1.70;;;;;;;26.57;53.63;95003.00;4347636;32;20193;-56
2022/06/30 11:37:55;;;;;;;4.53;1.07;;;;;;;26.66;53.26;95006.78;4332428;32;20207;-55
2022/06/30 11:40:23;;;;;;;1.30;1.30;;;;;;;26.85;51.35;94999.22;4329094;32;20189;-55
2022/06/30 11:42:53;;;;;;;1.50;1.50;;;;;;;26.85;50.46;95002.69;4345423;32;20264;-56
2022/06/30 11:45:29;;;;;;;0.83;0.83;;;;;;;26.83;52.67;95007.00;4332139;32;20247;-54
2022/06/30 11:47:59;;;;;;;1.53;1.43;;;;;;;26.78;53.15;94993.84;4317641;32;20204;-50
2022/06/30 11:50:26;;;;;;;0.70;0.70;;;;;;;26.73;53.68;94988.84;4341354;32;20196;-55
2022/06/30 11:52:54;;;;;;;0.97;0.97;;;;;;;26.74;53.93;94987.69;4334223;32;20197;-55
2022/06/30 11:55:29;;;;;;;1.60;0.77;;;;;;;26.91;53.26;94986.69;4332161;32;20201;-58
2022/06/30 11:57:57;;;;;;;2.20;1.13;;;;;;;26.91;53.00;94983.97;4336874;32;20205;-55
2022/06/30 12:00:27;;;;;;;0.93;0.93;;;;;;;26.82;53.81;94979.00;4339457;32;20236;-52